sensor_id;sensor_type;location;lat;lon;timestamp;P1;durP1;ratioP1;P2;durP2;ratioP2
35223;SDS011;21367;51.930;8.112;2022-10-31T00:00:05;36.03;;;14.38;;
35223;SDS011;21367;51.930;8.112;2022-10-31T00:05:14;39.95;;;14.23;;
35223;SDS011;21367;51.930;8.112;2022-10-31T00:10:21;44.47;;;17.33;;
35223;SDS011;21367;51.930;8.112;2022-10-31T00:15:25;35.58;;;14.20;;
35223;SDS011;21367;51.930;8.112;2022-10-31T00:20:31;41.28;;;16.55;;
35223;SDS011;21367;51.930;8.112;2022-10-31T00:25:36;35.95;;;15.98;;
35223;SDS011;21367;51.930;8.112;2022-10-31T00:30:41;40.67;;;16.35;;
35223;SDS011;21367;51.930;8.112;2022-10-31T00:35:51;39.50;;;16.80;;
35223;SDS011;21367;51.930;8.112;2022-10-31T00:40:55;45.08;;;17.23;;
35223;SDS011;21367;51.930;8.112;2022-10-31T00:45:59;41.88;;;15.90;;
35223;SDS011;21367;51.930;8.112;2022-10-31T00:51:05;42.67;;;17.88;;
35223;SDS011;21367;51.930;8.112;2022-10-31T00:56:11;44.47;;;17.33;;
35223;SDS011;21367;51.930;8.112;2022-10-31T01:01:16;42.25;;;16.67;;
35223;SDS011;21367;51.930;8.112;2022-10-31T01:06:23;44.85;;;16.88;;
35223;SDS011;21367;51.930;8.112;2022-10-31T01:11:30;39.20;;;17.40;;
35223;SDS011;21367;51.930;8.112;2022-10-31T01:16:37;37.95;;;16.95;;
35223;SDS011;21367;51.930;8.112;2022-10-31T01:21:44;46.40;;;17.08;;
35223;SDS011;21367;51.930;8.112;2022-10-31T01:26:48;41.58;;;17.02;;
35223;SDS011;21367;51.930;8.112;2022-10-31T01:31:52;44.35;;;18.05;;
35223;SDS011;21367;51.930;8.112;2022-10-31T01:36:58;49.55;;;18.83;;
35223;SDS011;21367;51.930;8.112;2022-10-31T01:42:02;39.95;;;18.85;;
35223;SDS011;21367;51.930;8.112;2022-10-31T01:47:07;48.90;;;19.48;;
35223;SDS011;21367;51.930;8.112;2022-10-31T01:52:21;44.53;;;19.83;;
35223;SDS011;21367;51.930;8.112;2022-10-31T01:57:28;42.58;;;18.27;;
35223;SDS011;21367;51.930;8.112;2022-10-31T02:02:35;47.05;;;18.55;;
35223;SDS011;21367;51.930;8.112;2022-10-31T02:07:43;52.92;;;19.70;;
35223;SDS011;21367;51.930;8.112;2022-10-31T02:12:52;51.92;;;19.33;;
35223;SDS011;21367;51.930;8.112;2022-10-31T02:18:00;48.53;;;19.35;;
35223;SDS011;21367;51.930;8.112;2022-10-31T02:28:51;58.05;;;21.92;;
35223;SDS011;21367;51.930;8.112;2022-10-31T02:39:51;58.90;;;23.23;;
35223;SDS011;21367;51.930;8.112;2022-10-31T02:45:18;57.15;;;21.30;;
35223;SDS011;21367;51.930;8.112;2022-10-31T02:50:31;70.43;;;25.27;;
35223;SDS011;21367;51.930;8.112;2022-10-31T02:55:49;55.25;;;22.20;;
35223;SDS011;21367;51.930;8.112;2022-10-31T03:01:12;55.33;;;22.27;;
35223;SDS011;21367;51.930;8.112;2022-10-31T03:06:32;54.70;;;21.55;;
35223;SDS011;21367;51.930;8.112;2022-10-31T03:11:41;59.42;;;23.88;;
35223;SDS011;21367;51.930;8.112;2022-10-31T03:16:50;55.63;;;23.42;;
35223;SDS011;21367;51.930;8.112;2022-10-31T03:21:59;56.88;;;23.02;;
35223;SDS011;21367;51.930;8.112;2022-10-31T03:27:06;55.80;;;24.52;;
35223;SDS011;21367;51.930;8.112;2022-10-31T03:32:15;52.78;;;23.35;;
35223;SDS011;21367;51.930;8.112;2022-10-31T03:37:27;50.28;;;22.88;;
35223;SDS011;21367;51.930;8.112;2022-10-31T03:42:37;45.00;;;20.60;;
35223;SDS011;21367;51.930;8.112;2022-10-31T03:47:44;46.00;;;22.10;;
35223;SDS011;21367;51.930;8.112;2022-10-31T03:52:53;45.30;;;21.42;;
35223;SDS011;21367;51.930;8.112;2022-10-31T03:58:02;53.58;;;21.52;;
35223;SDS011;21367;51.930;8.112;2022-10-31T04:03:09;50.80;;;22.52;;
35223;SDS011;21367;51.930;8.112;2022-10-31T04:08:21;55.15;;;23.17;;
35223;SDS011;21367;51.930;8.112;2022-10-31T04:13:31;64.88;;;23.00;;
35223;SDS011;21367;51.930;8.112;2022-10-31T04:18:45;49.35;;;20.83;;
35223;SDS011;21367;51.930;8.112;2022-10-31T04:23:52;52.60;;;21.13;;
35223;SDS011;21367;51.930;8.112;2022-10-31T04:28:59;56.50;;;20.73;;
35223;SDS011;21367;51.930;8.112;2022-10-31T04:34:04;43.63;;;21.35;;
35223;SDS011;21367;51.930;8.112;2022-10-31T04:39:11;54.30;;;20.67;;
35223;SDS011;21367;51.930;8.112;2022-10-31T04:44:21;52.38;;;21.55;;
35223;SDS011;21367;51.930;8.112;2022-10-31T04:49:27;49.38;;;21.58;;
35223;SDS011;21367;51.930;8.112;2022-10-31T04:54:34;46.47;;;20.75;;
35223;SDS011;21367;51.930;8.112;2022-10-31T04:59:56;43.35;;;20.30;;
35223;SDS011;21367;51.930;8.112;2022-10-31T05:05:00;43.97;;;19.95;;
35223;SDS011;21367;51.930;8.112;2022-10-31T05:10:11;45.58;;;19.88;;
35223;SDS011;21367;51.930;8.112;2022-10-31T05:15:17;48.33;;;19.38;;
35223;SDS011;21367;51.930;8.112;2022-10-31T05:20:40;45.00;;;19.48;;
35223;SDS011;21367;51.930;8.112;2022-10-31T05:25:52;43.03;;;17.45;;
35223;SDS011;21367;51.930;8.112;2022-10-31T05:30:56;49.42;;;19.05;;
35223;SDS011;21367;51.930;8.112;2022-10-31T05:36:00;40.75;;;17.42;;
35223;SDS011;21367;51.930;8.112;2022-10-31T05:41:27;38.17;;;18.13;;
35223;SDS011;21367;51.930;8.112;2022-10-31T05:46:40;35.03;;;16.65;;
35223;SDS011;21367;51.930;8.112;2022-10-31T05:51:44;39.42;;;17.27;;
35223;SDS011;21367;51.930;8.112;2022-10-31T05:56:50;36.80;;;17.50;;
35223;SDS011;21367;51.930;8.112;2022-10-31T06:01:55;48.92;;;16.65;;
35223;SDS011;21367;51.930;8.112;2022-10-31T06:07:19;34.03;;;16.23;;
35223;SDS011;21367;51.930;8.112;2022-10-31T06:12:26;40.83;;;17.40;;
35223;SDS011;21367;51.930;8.112;2022-10-31T06:18:07;34.05;;;17.05;;
35223;SDS011;21367;51.930;8.112;2022-10-31T06:23:24;34.80;;;15.60;;
35223;SDS011;21367;51.930;8.112;2022-10-31T06:28:48;37.58;;;17.35;;
35223;SDS011;21367;51.930;8.112;2022-10-31T06:34:12;30.20;;;14.98;;
35223;SDS011;21367;51.930;8.112;2022-10-31T06:44:25;27.40;;;14.48;;
35223;SDS011;21367;51.930;8.112;2022-10-31T06:49:29;26.20;;;13.50;;
35223;SDS011;21367;51.930;8.112;2022-10-31T06:54:36;50.35;;;18.42;;
35223;SDS011;21367;51.930;8.112;2022-10-31T06:59:43;36.15;;;16.10;;
35223;SDS011;21367;51.930;8.112;2022-10-31T07:04:59;39.22;;;15.32;;
35223;SDS011;21367;51.930;8.112;2022-10-31T07:10:03;32.60;;;12.93;;
35223;SDS011;21367;51.930;8.112;2022-10-31T07:15:40;42.58;;;14.95;;
35223;SDS011;21367;51.930;8.112;2022-10-31T07:20:45;39.38;;;15.73;;
35223;SDS011;21367;51.930;8.112;2022-10-31T07:25:53;37.08;;;14.27;;
35223;SDS011;21367;51.930;8.112;2022-10-31T07:31:19;45.60;;;14.65;;
35223;SDS011;21367;51.930;8.112;2022-10-31T07:36:24;35.00;;;15.82;;
35223;SDS011;21367;51.930;8.112;2022-10-31T07:41:32;40.83;;;15.25;;
35223;SDS011;21367;51.930;8.112;2022-10-31T07:46:39;34.60;;;14.70;;
35223;SDS011;21367;51.930;8.112;2022-10-31T07:52:02;40.97;;;14.82;;
35223;SDS011;21367;51.930;8.112;2022-10-31T07:57:25;38.58;;;14.77;;
35223;SDS011;21367;51.930;8.112;2022-10-31T08:02:33;40.60;;;15.23;;
35223;SDS011;21367;51.930;8.112;2022-10-31T08:07:56;29.55;;;14.73;;
35223;SDS011;21367;51.930;8.112;2022-10-31T08:13:01;41.38;;;15.32;;
35223;SDS011;21367;51.930;8.112;2022-10-31T08:18:13;34.92;;;16.05;;
35223;SDS011;21367;51.930;8.112;2022-10-31T08:23:18;33.10;;;16.02;;
35223;SDS011;21367;51.930;8.112;2022-10-31T08:28:22;41.13;;;17.75;;
35223;SDS011;21367;51.930;8.112;2022-10-31T08:33:30;35.72;;;16.80;;
35223;SDS011;21367;51.930;8.112;2022-10-31T08:38:52;46.95;;;17.65;;
35223;SDS011;21367;51.930;8.112;2022-10-31T08:43:56;45.63;;;17.40;;
35223;SDS011;21367;51.930;8.112;2022-10-31T08:49:03;41.13;;;18.80;;
35223;SDS011;21367;51.930;8.112;2022-10-31T08:54:07;42.45;;;18.38;;
35223;SDS011;21367;51.930;8.112;2022-10-31T08:59:23;44.53;;;19.13;;
35223;SDS011;21367;51.930;8.112;2022-10-31T09:04:56;52.95;;;20.02;;
35223;SDS011;21367;51.930;8.112;2022-10-31T09:10:01;46.08;;;18.25;;
35223;SDS011;21367;51.930;8.112;2022-10-31T09:15:09;41.03;;;18.52;;
35223;SDS011;21367;51.930;8.112;2022-10-31T09:20:20;44.35;;;19.60;;
35223;SDS011;21367;51.930;8.112;2022-10-31T09:25:26;46.95;;;20.38;;
35223;SDS011;21367;51.930;8.112;2022-10-31T09:30:53;50.03;;;21.58;;
35223;SDS011;21367;51.930;8.112;2022-10-31T09:36:20;54.38;;;21.70;;
35223;SDS011;21367;51.930;8.112;2022-10-31T09:41:27;51.50;;;21.13;;
35223;SDS011;21367;51.930;8.112;2022-10-31T09:46:51;56.45;;;22.33;;
35223;SDS011;21367;51.930;8.112;2022-10-31T09:52:08;53.45;;;22.80;;
35223;SDS011;21367;51.930;8.112;2022-10-31T09:57:19;53.47;;;22.83;;
35223;SDS011;21367;51.930;8.112;2022-10-31T10:02:29;55.75;;;23.25;;
35223;SDS011;21367;51.930;8.112;2022-10-31T10:07:41;56.35;;;24.02;;
35223;SDS011;21367;51.930;8.112;2022-10-31T10:19:00;60.03;;;21.77;;
35223;SDS011;21367;51.930;8.112;2022-10-31T10:24:21;62.40;;;22.75;;
35223;SDS011;21367;51.930;8.112;2022-10-31T10:29:33;57.38;;;23.73;;
35223;SDS011;21367;51.930;8.112;2022-10-31T10:34:43;58.60;;;24.95;;
35223;SDS011;21367;51.930;8.112;2022-10-31T10:39:57;55.47;;;25.02;;
35223;SDS011;21367;51.930;8.112;2022-10-31T10:45:12;58.17;;;25.45;;
35223;SDS011;21367;51.930;8.112;2022-10-31T10:50:32;54.40;;;23.08;;
35223;SDS011;21367;51.930;8.112;2022-10-31T10:55:44;57.78;;;24.42;;
35223;SDS011;21367;51.930;8.112;2022-10-31T11:00:55;57.38;;;23.25;;
35223;SDS011;21367;51.930;8.112;2022-10-31T11:05:59;53.92;;;23.10;;
35223;SDS011;21367;51.930;8.112;2022-10-31T11:11:08;60.65;;;23.80;;
35223;SDS011;21367;51.930;8.112;2022-10-31T11:16:31;52.55;;;24.27;;
35223;SDS011;21367;51.930;8.112;2022-10-31T11:21:37;52.85;;;23.92;;
35223;SDS011;21367;51.930;8.112;2022-10-31T11:26:47;53.65;;;23.70;;
35223;SDS011;21367;51.930;8.112;2022-10-31T11:31:53;54.15;;;25.48;;
35223;SDS011;21367;51.930;8.112;2022-10-31T11:37:01;59.20;;;24.30;;
35223;SDS011;21367;51.930;8.112;2022-10-31T11:42:14;71.35;;;27.45;;
35223;SDS011;21367;51.930;8.112;2022-10-31T11:47:20;57.67;;;25.30;;
35223;SDS011;21367;51.930;8.112;2022-10-31T11:52:29;61.00;;;25.67;;
35223;SDS011;21367;51.930;8.112;2022-10-31T11:57:44;55.45;;;26.25;;
35223;SDS011;21367;51.930;8.112;2022-10-31T12:02:50;65.57;;;27.30;;
35223;SDS011;21367;51.930;8.112;2022-10-31T12:07:54;59.78;;;28.10;;
35223;SDS011;21367;51.930;8.112;2022-10-31T12:13:05;69.32;;;27.90;;
35223;SDS011;21367;51.930;8.112;2022-10-31T12:18:22;69.68;;;28.33;;
35223;SDS011;21367;51.930;8.112;2022-10-31T12:23:38;85.45;;;29.58;;
35223;SDS011;21367;51.930;8.112;2022-10-31T12:29:06;71.97;;;30.63;;
35223;SDS011;21367;51.930;8.112;2022-10-31T12:34:25;72.72;;;29.77;;
35223;SDS011;21367;51.930;8.112;2022-10-31T12:39:41;69.30;;;28.58;;
35223;SDS011;21367;51.930;8.112;2022-10-31T12:45:07;68.65;;;30.80;;
35223;SDS011;21367;51.930;8.112;2022-10-31T12:50:31;75.78;;;31.35;;
35223;SDS011;21367;51.930;8.112;2022-10-31T12:55:50;73.85;;;32.00;;
35223;SDS011;21367;51.930;8.112;2022-10-31T13:01:09;68.53;;;29.60;;
35223;SDS011;21367;51.930;8.112;2022-10-31T13:06:18;72.90;;;31.90;;
35223;SDS011;21367;51.930;8.112;2022-10-31T13:11:26;73.95;;;30.95;;
35223;SDS011;21367;51.930;8.112;2022-10-31T13:16:37;70.35;;;30.17;;
35223;SDS011;21367;51.930;8.112;2022-10-31T13:21:53;75.80;;;30.30;;
35223;SDS011;21367;51.930;8.112;2022-10-31T13:27:02;78.97;;;31.95;;
35223;SDS011;21367;51.930;8.112;2022-10-31T13:32:15;73.93;;;31.15;;
35223;SDS011;21367;51.930;8.112;2022-10-31T13:37:20;71.13;;;31.77;;
35223;SDS011;21367;51.930;8.112;2022-10-31T13:42:38;78.20;;;29.55;;
35223;SDS011;21367;51.930;8.112;2022-10-31T13:48:00;62.17;;;29.20;;
35223;SDS011;21367;51.930;8.112;2022-10-31T13:53:21;62.92;;;27.80;;
35223;SDS011;21367;51.930;8.112;2022-10-31T13:58:26;64.43;;;26.10;;
35223;SDS011;21367;51.930;8.112;2022-10-31T14:03:35;55.10;;;23.85;;
35223;SDS011;21367;51.930;8.112;2022-10-31T14:08:46;50.45;;;20.10;;
35223;SDS011;21367;51.930;8.112;2022-10-31T14:13:53;45.17;;;19.95;;
35223;SDS011;21367;51.930;8.112;2022-10-31T14:19:02;50.67;;;21.58;;
35223;SDS011;21367;51.930;8.112;2022-10-31T14:24:13;43.15;;;20.73;;
35223;SDS011;21367;51.930;8.112;2022-10-31T14:29:26;49.00;;;21.50;;
35223;SDS011;21367;51.930;8.112;2022-10-31T14:34:34;62.92;;;22.40;;
35223;SDS011;21367;51.930;8.112;2022-10-31T14:39:46;46.88;;;20.45;;
35223;SDS011;21367;51.930;8.112;2022-10-31T14:45:06;55.40;;;19.53;;
35223;SDS011;21367;51.930;8.112;2022-10-31T14:50:24;37.67;;;18.60;;
35223;SDS011;21367;51.930;8.112;2022-10-31T14:55:39;49.78;;;17.67;;
35223;SDS011;21367;51.930;8.112;2022-10-31T15:00:48;39.47;;;17.33;;
35223;SDS011;21367;51.930;8.112;2022-10-31T15:06:00;40.60;;;17.30;;
35223;SDS011;21367;51.930;8.112;2022-10-31T15:11:12;46.35;;;18.05;;
35223;SDS011;21367;51.930;8.112;2022-10-31T15:16:19;55.47;;;19.02;;
35223;SDS011;21367;51.930;8.112;2022-10-31T15:21:29;46.65;;;17.95;;
35223;SDS011;21367;51.930;8.112;2022-10-31T15:26:34;52.08;;;19.50;;
35223;SDS011;21367;51.930;8.112;2022-10-31T15:31:48;47.47;;;19.13;;
35223;SDS011;21367;51.930;8.112;2022-10-31T15:36:56;40.88;;;17.30;;
35223;SDS011;21367;51.930;8.112;2022-10-31T15:42:00;41.78;;;17.95;;
35223;SDS011;21367;51.930;8.112;2022-10-31T15:47:04;43.17;;;18.02;;
35223;SDS011;21367;51.930;8.112;2022-10-31T15:52:21;43.30;;;19.35;;
35223;SDS011;21367;51.930;8.112;2022-10-31T15:57:32;50.10;;;19.15;;
35223;SDS011;21367;51.930;8.112;2022-10-31T16:02:37;46.55;;;19.73;;
35223;SDS011;21367;51.930;8.112;2022-10-31T16:07:47;51.10;;;20.45;;
35223;SDS011;21367;51.930;8.112;2022-10-31T16:12:52;46.55;;;19.73;;
35223;SDS011;21367;51.930;8.112;2022-10-31T16:17:56;54.95;;;20.13;;
35223;SDS011;21367;51.930;8.112;2022-10-31T16:23:03;52.90;;;22.27;;
35223;SDS011;21367;51.930;8.112;2022-10-31T16:28:13;64.82;;;21.98;;
35223;SDS011;21367;51.930;8.112;2022-10-31T16:33:23;44.85;;;19.80;;
35223;SDS011;21367;51.930;8.112;2022-10-31T16:38:34;55.08;;;19.40;;
35223;SDS011;21367;51.930;8.112;2022-10-31T16:43:38;49.53;;;19.48;;
35223;SDS011;21367;51.930;8.112;2022-10-31T16:48:42;50.58;;;20.63;;
35223;SDS011;21367;51.930;8.112;2022-10-31T16:53:48;46.95;;;20.48;;
35223;SDS011;21367;51.930;8.112;2022-10-31T16:58:55;47.45;;;19.60;;
35223;SDS011;21367;51.930;8.112;2022-10-31T17:03:59;48.78;;;21.88;;
35223;SDS011;21367;51.930;8.112;2022-10-31T17:09:06;56.65;;;23.17;;
35223;SDS011;21367;51.930;8.112;2022-10-31T17:14:10;61.17;;;21.45;;
35223;SDS011;21367;51.930;8.112;2022-10-31T17:19:14;54.97;;;20.50;;
35223;SDS011;21367;51.930;8.112;2022-10-31T17:24:21;46.22;;;19.40;;
35223;SDS011;21367;51.930;8.112;2022-10-31T17:29:25;58.65;;;20.15;;
35223;SDS011;21367;51.930;8.112;2022-10-31T17:34:29;50.85;;;21.48;;
35223;SDS011;21367;51.930;8.112;2022-10-31T17:39:35;62.17;;;22.67;;
35223;SDS011;21367;51.930;8.112;2022-10-31T17:49:42;44.55;;;22.13;;
35223;SDS011;21367;51.930;8.112;2022-10-31T17:54:49;60.17;;;23.20;;
35223;SDS011;21367;51.930;8.112;2022-10-31T17:59:53;65.80;;;26.98;;
35223;SDS011;21367;51.930;8.112;2022-10-31T18:04:57;41.25;;;21.60;;
35223;SDS011;21367;51.930;8.112;2022-10-31T18:10:05;46.00;;;21.42;;
35223;SDS011;21367;51.930;8.112;2022-10-31T18:15:09;57.85;;;20.85;;
35223;SDS011;21367;51.930;8.112;2022-10-31T18:20:13;53.67;;;20.95;;
35223;SDS011;21367;51.930;8.112;2022-10-31T18:25:20;43.90;;;20.27;;
35223;SDS011;21367;51.930;8.112;2022-10-31T18:30:23;55.45;;;21.40;;
35223;SDS011;21367;51.930;8.112;2022-10-31T18:35:27;55.50;;;20.92;;
35223;SDS011;21367;51.930;8.112;2022-10-31T18:40:34;57.80;;;20.63;;
35223;SDS011;21367;51.930;8.112;2022-10-31T18:45:38;48.65;;;20.95;;
35223;SDS011;21367;51.930;8.112;2022-10-31T18:50:43;54.63;;;19.27;;
35223;SDS011;21367;51.930;8.112;2022-10-31T18:55:49;53.00;;;19.58;;
35223;SDS011;21367;51.930;8.112;2022-10-31T19:00:53;50.72;;;18.65;;
35223;SDS011;21367;51.930;8.112;2022-10-31T19:05:57;51.85;;;19.10;;
35223;SDS011;21367;51.930;8.112;2022-10-31T19:11:06;49.28;;;19.90;;
35223;SDS011;21367;51.930;8.112;2022-10-31T19:16:12;49.88;;;18.88;;
35223;SDS011;21367;51.930;8.112;2022-10-31T19:21:17;51.58;;;18.90;;
35223;SDS011;21367;51.930;8.112;2022-10-31T19:26:23;46.83;;;16.77;;
35223;SDS011;21367;51.930;8.112;2022-10-31T19:31:27;35.30;;;15.75;;
35223;SDS011;21367;51.930;8.112;2022-10-31T19:36:32;52.88;;;16.90;;
35223;SDS011;21367;51.930;8.112;2022-10-31T19:41:39;43.13;;;17.73;;
35223;SDS011;21367;51.930;8.112;2022-10-31T19:46:42;46.63;;;17.65;;
35223;SDS011;21367;51.930;8.112;2022-10-31T19:51:47;46.58;;;17.80;;
35223;SDS011;21367;51.930;8.112;2022-10-31T19:56:54;46.60;;;17.13;;
35223;SDS011;21367;51.930;8.112;2022-10-31T20:01:58;44.70;;;17.67;;
35223;SDS011;21367;51.930;8.112;2022-10-31T20:07:02;45.15;;;17.63;;
35223;SDS011;21367;51.930;8.112;2022-10-31T20:12:09;49.28;;;17.45;;
35223;SDS011;21367;51.930;8.112;2022-10-31T20:17:12;39.53;;;16.92;;
35223;SDS011;21367;51.930;8.112;2022-10-31T20:22:16;43.13;;;17.13;;
35223;SDS011;21367;51.930;8.112;2022-10-31T20:27:23;50.42;;;16.70;;
35223;SDS011;21367;51.930;8.112;2022-10-31T20:32:27;48.88;;;18.38;;
35223;SDS011;21367;51.930;8.112;2022-10-31T20:37:31;40.45;;;16.58;;
35223;SDS011;21367;51.930;8.112;2022-10-31T20:42:37;49.60;;;16.92;;
35223;SDS011;21367;51.930;8.112;2022-10-31T20:47:41;39.63;;;15.85;;
35223;SDS011;21367;51.930;8.112;2022-10-31T20:52:45;42.90;;;15.20;;
35223;SDS011;21367;51.930;8.112;2022-10-31T20:57:52;39.03;;;16.45;;
35223;SDS011;21367;51.930;8.112;2022-10-31T21:02:56;41.40;;;15.85;;
35223;SDS011;21367;51.930;8.112;2022-10-31T21:08:00;36.80;;;16.15;;
35223;SDS011;21367;51.930;8.112;2022-10-31T21:13:06;42.47;;;16.67;;
35223;SDS011;21367;51.930;8.112;2022-10-31T21:18:10;48.72;;;18.38;;
35223;SDS011;21367;51.930;8.112;2022-10-31T21:23:14;35.85;;;17.98;;
35223;SDS011;21367;51.930;8.112;2022-10-31T21:28:21;35.53;;;18.13;;
35223;SDS011;21367;51.930;8.112;2022-10-31T21:33:26;42.22;;;16.90;;
35223;SDS011;21367;51.930;8.112;2022-10-31T21:38:31;41.20;;;15.30;;
35223;SDS011;21367;51.930;8.112;2022-10-31T21:43:40;42.30;;;15.65;;
35223;SDS011;21367;51.930;8.112;2022-10-31T21:48:46;41.90;;;15.65;;
35223;SDS011;21367;51.930;8.112;2022-10-31T21:53:51;36.95;;;16.98;;
35223;SDS011;21367;51.930;8.112;2022-10-31T21:59:10;40.80;;;16.92;;
35223;SDS011;21367;51.930;8.112;2022-10-31T22:04:14;38.95;;;15.38;;
35223;SDS011;21367;51.930;8.112;2022-10-31T22:09:18;36.80;;;15.43;;
35223;SDS011;21367;51.930;8.112;2022-10-31T22:14:26;39.85;;;15.68;;
35223;SDS011;21367;51.930;8.112;2022-10-31T22:19:29;42.88;;;15.13;;
35223;SDS011;21367;51.930;8.112;2022-10-31T22:24:33;41.35;;;15.50;;
35223;SDS011;21367;51.930;8.112;2022-10-31T22:29:40;40.40;;;16.35;;
35223;SDS011;21367;51.930;8.112;2022-10-31T22:34:44;43.38;;;16.80;;
35223;SDS011;21367;51.930;8.112;2022-10-31T22:39:48;31.60;;;16.27;;
35223;SDS011;21367;51.930;8.112;2022-10-31T22:44:55;36.90;;;16.10;;
35223;SDS011;21367;51.930;8.112;2022-10-31T22:50:01;35.42;;;15.13;;
35223;SDS011;21367;51.930;8.112;2022-10-31T22:55:06;40.88;;;14.25;;
35223;SDS011;21367;51.930;8.112;2022-10-31T23:00:14;32.20;;;15.90;;
35223;SDS011;21367;51.930;8.112;2022-10-31T23:05:18;38.70;;;15.88;;
35223;SDS011;21367;51.930;8.112;2022-10-31T23:10:22;43.42;;;16.90;;
35223;SDS011;21367;51.930;8.112;2022-10-31T23:15:37;35.42;;;14.88;;
35223;SDS011;21367;51.930;8.112;2022-10-31T23:20:41;37.58;;;14.98;;
35223;SDS011;21367;51.930;8.112;2022-10-31T23:25:45;44.60;;;15.73;;
35223;SDS011;21367;51.930;8.112;2022-10-31T23:31:04;34.67;;;15.45;;
35223;SDS011;21367;51.930;8.112;2022-10-31T23:36:08;40.58;;;17.25;;
35223;SDS011;21367;51.930;8.112;2022-10-31T23:41:12;37.10;;;16.85;;
35223;SDS011;21367;51.930;8.112;2022-10-31T23:46:18;39.42;;;16.33;;
35223;SDS011;21367;51.930;8.112;2022-10-31T23:56:26;47.70;;;16.63;;
